Time,TemperatureF,DewpointF,PressureIn,WindDirection,WindDirectionDegrees,WindSpeedMPH,WindSpeedGustMPH,Humidity,HourlyPrecipIn,Conditions,Clouds,dailyrainin,SoftwareType,DateUTC
2018-05-22 00:02:00,69.7,38.5,30.08,SSE,163,0.0,0.0,32,0.00,,,0.00,Wunderground v.1.15,2018-05-22 04:02:00,
2018-05-22 00:08:00,69.7,37.7,30.08,SSE,163,0.0,0.0,31,0.00,,,0.00,Wunderground v.1.15,2018-05-22 04:08:00,
2018-05-22 00:14:00,69.7,37.7,30.07,SSE,163,0.0,0.0,31,0.00,,,0.00,Wunderground v.1.15,2018-05-22 04:14:00,
2018-05-22 00:19:00,69.7,36.9,30.07,SSE,163,0.0,0.0,30,0.00,,,0.00,Wunderground v.1.15,2018-05-22 04:19:00,
2018-05-22 00:25:00,69.7,36.0,30.07,SW,228,0.0,2.0,29,0.00,,,0.00,Wunderground v.1.15,2018-05-22 04:25:00,
2018-05-22 00:30:00,69.7,35.1,30.07,SW,228,0.0,0.0,28,0.00,,,0.00,Wunderground v.1.15,2018-05-22 04:30:00,
2018-05-22 00:36:00,69.6,34.1,30.08,SW,228,0.0,0.0,27,0.00,,,0.00,Wunderground v.1.15,2018-05-22 04:36:00,
2018-05-22 00:41:00,69.4,32.0,30.08,WSW,246,0.0,0.0,25,0.00,,,0.00,Wunderground v.1.15,2018-05-22 04:41:00,
2018-05-22 00:47:00,69.3,31.9,30.07,WSW,246,0.0,1.0,25,0.00,,,0.00,Wunderground v.1.15,2018-05-22 04:47:00,
2018-05-22 00:52:00,69.1,32.7,30.07,SW,231,0.0,2.0,26,0.00,,,0.00,Wunderground v.1.15,2018-05-22 04:52:00,
2018-05-22 00:58:00,69.0,33.6,30.07,SSE,157,0.0,2.0,27,0.00,,,0.00,Wunderground v.1.15,2018-05-22 04:58:00,
2018-05-22 01:03:00,68.9,37.0,30.07,SSE,155,0.0,1.0,31,0.00,,,0.00,Wunderground v.1.15,2018-05-22 05:03:00,
2018-05-22 01:09:00,68.9,37.0,30.07,SSW,205,2.0,2.0,31,0.00,,,0.00,Wunderground v.1.15,2018-05-22 05:09:00,
2018-05-22 01:15:00,68.8,40.7,30.07,West,262,0.0,2.0,36,0.00,,,0.00,Wunderground v.1.15,2018-05-22 05:15:00,
2018-05-22 01:20:00,68.8,40.0,30.07,SSE,155,0.0,1.0,35,0.00,,,0.00,Wunderground v.1.15,2018-05-22 05:20:00,
2018-05-22 01:26:00,68.7,39.9,30.07,SSE,160,0.0,2.0,35,0.00,,,0.00,Wunderground v.1.15,2018-05-22 05:26:00,
2018-05-22 01:31:00,68.6,41.3,30.06,SSE,160,1.0,1.0,37,0.00,,,0.00,Wunderground v.1.15,2018-05-22 05:31:00,
2018-05-22 01:37:00,68.6,42.0,30.06,SSE,160,0.0,1.0,38,0.00,,,0.00,Wunderground v.1.15,2018-05-22 05:37:00,
2018-05-22 01:42:00,68.5,41.9,30.06,SSE,160,0.0,0.0,38,0.00,,,0.00,Wunderground v.1.15,2018-05-22 05:42:00,
2018-05-22 01:48:00,68.5,39.8,30.06,SSE,160,0.0,0.0,35,0.00,,,0.00,Wunderground v.1.15,2018-05-22 05:48:00,
2018-05-22 01:53:00,68.5,41.2,30.06,SSE,161,0.0,0.0,37,0.00,,,0.00,Wunderground v.1.15,2018-05-22 05:53:00,
2018-05-22 01:59:00,68.4,40.4,30.06,South,170,0.0,0.0,36,0.00,,,0.00,Wunderground v.1.15,2018-05-22 05:59:00,
2018-05-22 02:04:00,68.4,39.7,30.06,South,170,0.0,0.0,35,0.00,,,0.00,Wunderground v.1.15,2018-05-22 06:04:00,
2018-05-22 02:09:00,68.3,38.8,30.06,South,171,0.0,0.0,34,0.00,,,0.00,Wunderground v.1.15,2018-05-22 06:09:00,
2018-05-22 02:14:00,68.3,38.1,30.06,SSE,161,0.0,0.0,33,0.00,,,0.00,Wunderground v.1.15,2018-05-22 06:14:00,
2018-05-22 02:19:00,68.3,36.5,30.06,SSE,161,0.0,2.0,31,0.00,,,0.00,Wunderground v.1.15,2018-05-22 06:19:00,
2018-05-22 02:24:00,68.2,37.2,30.06,SSW,192,1.0,1.0,32,0.00,,,0.00,Wunderground v.1.15,2018-05-22 06:24:00,
2018-05-22 02:29:00,68.2,36.4,30.06,South,190,0.0,1.0,31,0.00,,,0.00,Wunderground v.1.15,2018-05-22 06:29:00,
2018-05-22 02:34:00,68.1,34.6,30.06,South,190,0.0,0.0,29,0.00,,,0.00,Wunderground v.1.15,2018-05-22 06:34:00,
2018-05-22 02:39:00,68.1,33.7,30.06,South,190,0.0,0.0,28,0.00,,,0.00,Wunderground v.1.15,2018-05-22 06:39:00,
2018-05-22 02:44:00,68.0,33.7,30.06,South,190,0.0,0.0,28,0.00,,,0.00,Wunderground v.1.15,2018-05-22 06:44:00,
2018-05-22 02:49:00,68.0,34.5,30.06,South,189,0.0,0.0,29,0.00,,,0.00,Wunderground v.1.15,2018-05-22 06:49:00,
2018-05-22 02:54:00,68.0,33.7,30.06,South,191,1.0,2.0,28,0.00,,,0.00,Wunderground v.1.15,2018-05-22 06:54:00,
2018-05-22 02:59:00,68.1,34.6,30.06,South,191,0.0,0.0,29,0.00,,,0.00,Wunderground v.1.15,2018-05-22 06:59:00,
2018-05-22 03:04:00,68.0,31.8,30.06,SSW,197,2.0,2.0,26,0.00,,,0.00,Wunderground v.1.15,2018-05-22 07:04:00,
2018-05-22 03:09:00,68.0,32.7,30.06,SSW,197,0.0,0.0,27,0.00,,,0.00,Wunderground v.1.15,2018-05-22 07:09:00,
2018-05-22 03:14:00,67.9,31.7,30.06,NNW,332,0.0,2.0,26,0.00,,,0.00,Wunderground v.1.15,2018-05-22 07:14:00,
2018-05-22 03:19:00,67.9,31.7,30.06,SSE,161,2.0,2.0,26,0.00,,,0.00,Wunderground v.1.15,2018-05-22 07:19:00,
2018-05-22 03:20:00,67.9,31.7,30.06,SSE,161,1.0,2.0,26,0.00,,,0.00,Wunderground v.1.15,2018-05-22 07:20:00,
2018-05-22 03:25:00,67.9,27.6,30.06,South,188,0.0,2.0,22,0.00,,,0.00,Wunderground v.1.15,2018-05-22 07:25:00,
2018-05-22 03:30:00,67.8,29.7,30.06,SSW,211,2.0,2.0,24,0.00,,,0.00,Wunderground v.1.15,2018-05-22 07:30:00,
2018-05-22 03:35:00,67.8,32.6,30.06,SW,232,0.0,4.0,27,0.00,,,0.00,Wunderground v.1.15,2018-05-22 07:35:00,
2018-05-22 03:40:00,67.7,32.5,30.06,SE,140,0.0,8.0,27,0.00,,,0.00,Wunderground v.1.15,2018-05-22 07:40:00,
2018-05-22 03:45:00,67.6,31.5,30.06,SW,234,1.0,8.0,26,0.00,,,0.00,Wunderground v.1.15,2018-05-22 07:45:00,
2018-05-22 03:50:00,67.5,32.3,30.06,SW,232,1.0,2.0,27,0.00,,,0.00,Wunderground v.1.15,2018-05-22 07:50:00,
2018-05-22 03:55:00,67.4,32.2,30.06,SE,146,1.0,3.0,27,0.00,,,0.00,Wunderground v.1.15,2018-05-22 07:55:00,
2018-05-22 04:00:00,67.3,31.2,30.05,SW,232,1.0,3.0,26,0.00,,,0.00,Wunderground v.1.15,2018-05-22 08:00:00,
2018-05-22 04:05:00,67.3,32.1,30.05,WSW,248,0.0,6.0,27,0.00,,,0.00,Wunderground v.1.15,2018-05-22 08:05:00,
2018-05-22 04:10:00,67.3,32.1,30.06,SSE,163,0.0,1.0,27,0.00,,,0.00,Wunderground v.1.15,2018-05-22 08:10:00,
2018-05-22 04:15:00,67.3,31.2,30.05,SE,136,0.0,3.0,26,0.00,,,0.00,Wunderground v.1.15,2018-05-22 08:15:00,
2018-05-22 04:20:00,67.2,31.1,30.05,SE,136,0.0,1.0,26,0.00,,,0.00,Wunderground v.1.15,2018-05-22 08:20:00,
2018-05-22 04:26:00,67.2,30.2,30.06,SW,217,0.0,5.0,25,0.00,,,0.00,Wunderground v.1.15,2018-05-22 08:26:00,
2018-05-22 04:31:00,67.2,27.0,30.06,SSE,158,0.0,0.0,22,0.00,,,0.00,Wunderground v.1.15,2018-05-22 08:31:00,
2018-05-22 04:36:00,67.1,26.9,30.06,South,170,0.0,2.0,22,0.00,,,0.00,Wunderground v.1.15,2018-05-22 08:36:00,
2018-05-22 04:41:00,67.0,25.7,30.06,SSE,159,0.0,1.0,21,0.00,,,0.00,Wunderground v.1.15,2018-05-22 08:41:00,
2018-05-22 04:46:00,66.9,23.3,30.06,SSE,167,0.0,1.0,19,0.00,,,0.00,Wunderground v.1.15,2018-05-22 08:46:00,
2018-05-22 04:51:00,66.8,21.9,30.06,South,169,0.0,0.0,18,0.00,,,0.00,Wunderground v.1.15,2018-05-22 08:51:00,
2018-05-22 04:56:00,66.8,20.5,30.06,SSW,212,0.0,2.0,17,0.00,,,0.00,Wunderground v.1.15,2018-05-22 08:56:00,
2018-05-22 05:01:00,66.7,17.5,30.06,South,174,0.0,2.0,15,0.00,,,0.00,Wunderground v.1.15,2018-05-22 09:01:00,
2018-05-22 05:06:00,66.6,15.9,30.06,WSW,258,3.0,4.0,14,0.00,,,0.00,Wunderground v.1.15,2018-05-22 09:06:00,
2018-05-22 05:11:00,66.6,15.9,30.06,WSW,241,0.0,1.0,14,0.00,,,0.00,Wunderground v.1.15,2018-05-22 09:11:00,
2018-05-22 05:16:00,66.6,14.2,30.06,WSW,241,0.0,1.0,13,0.00,,,0.00,Wunderground v.1.15,2018-05-22 09:16:00,